sensor_id;sensor_type;location;lat;lon;timestamp;P1;durP1;ratioP1;P2;durP2;ratioP2
74369;SDS011;62805;44.644;10.942;2023-04-15T00:02:18;2.07;;;1.00;;
74369;SDS011;62805;44.644;10.942;2023-04-15T00:04:45;3.58;;;1.10;;
74369;SDS011;62805;44.644;10.942;2023-04-15T00:07:11;2.08;;;1.00;;
74369;SDS011;62805;44.644;10.942;2023-04-15T00:09:37;6.10;;;1.10;;
74369;SDS011;62805;44.644;10.942;2023-04-15T00:12:02;5.63;;;1.02;;
74369;SDS011;62805;44.644;10.942;2023-04-15T00:14:28;3.28;;;1.02;;
74369;SDS011;62805;44.644;10.942;2023-04-15T00:16:54;2.25;;;1.10;;
74369;SDS011;62805;44.644;10.942;2023-04-15T00:19:21;4.80;;;1.30;;
74369;SDS011;62805;44.644;10.942;2023-04-15T00:21:47;4.63;;;0.93;;
74369;SDS011;62805;44.644;10.942;2023-04-15T00:24:12;2.73;;;0.77;;
74369;SDS011;62805;44.644;10.942;2023-04-15T00:26:37;5.40;;;1.30;;
74369;SDS011;62805;44.644;10.942;2023-04-15T00:29:03;4.25;;;1.00;;
74369;SDS011;62805;44.644;10.942;2023-04-15T00:31:29;2.47;;;1.00;;
74369;SDS011;62805;44.644;10.942;2023-04-15T00:33:55;3.22;;;1.17;;
74369;SDS011;62805;44.644;10.942;2023-04-15T00:36:21;3.38;;;1.10;;
74369;SDS011;62805;44.644;10.942;2023-04-15T00:38:47;3.58;;;1.27;;
74369;SDS011;62805;44.644;10.942;2023-04-15T00:41:12;5.97;;;1.20;;
74369;SDS011;62805;44.644;10.942;2023-04-15T00:43:38;2.63;;;1.08;;
74369;SDS011;62805;44.644;10.942;2023-04-15T00:46:04;2.22;;;0.90;;
74369;SDS011;62805;44.644;10.942;2023-04-15T00:48:30;3.22;;;0.90;;
74369;SDS011;62805;44.644;10.942;2023-04-15T00:50:56;4.63;;;1.15;;
74369;SDS011;62805;44.644;10.942;2023-04-15T00:53:22;7.18;;;1.10;;
74369;SDS011;62805;44.644;10.942;2023-04-15T00:55:47;4.45;;;1.27;;
74369;SDS011;62805;44.644;10.942;2023-04-15T00:58:13;5.03;;;1.48;;
74369;SDS011;62805;44.644;10.942;2023-04-15T01:00:39;3.15;;;1.30;;
74369;SDS011;62805;44.644;10.942;2023-04-15T01:03:05;2.22;;;1.30;;
74369;SDS011;62805;44.644;10.942;2023-04-15T01:05:30;5.65;;;1.30;;
74369;SDS011;62805;44.644;10.942;2023-04-15T01:07:56;4.18;;;1.40;;
74369;SDS011;62805;44.644;10.942;2023-04-15T01:10:22;2.67;;;0.90;;
74369;SDS011;62805;44.644;10.942;2023-04-15T01:12:47;5.85;;;2.05;;
74369;SDS011;62805;44.644;10.942;2023-04-15T01:15:13;3.58;;;1.00;;
74369;SDS011;62805;44.644;10.942;2023-04-15T01:17:40;4.45;;;1.40;;
74369;SDS011;62805;44.644;10.942;2023-04-15T01:20:06;2.75;;;1.10;;
74369;SDS011;62805;44.644;10.942;2023-04-15T01:22:34;3.92;;;1.10;;
74369;SDS011;62805;44.644;10.942;2023-04-15T01:25:10;3.13;;;1.02;;
74369;SDS011;62805;44.644;10.942;2023-04-15T01:27:38;2.70;;;0.90;;
74369;SDS011;62805;44.644;10.942;2023-04-15T01:30:05;2.75;;;1.35;;
74369;SDS011;62805;44.644;10.942;2023-04-15T01:32:31;1.88;;;1.00;;
74369;SDS011;62805;44.644;10.942;2023-04-15T01:34:57;3.88;;;1.50;;
74369;SDS011;62805;44.644;10.942;2023-04-15T01:37:22;2.83;;;1.20;;
74369;SDS011;62805;44.644;10.942;2023-04-15T01:39:48;4.90;;;1.05;;
74369;SDS011;62805;44.644;10.942;2023-04-15T01:42:13;3.43;;;1.10;;
74369;SDS011;62805;44.644;10.942;2023-04-15T01:44:39;4.20;;;1.17;;
74369;SDS011;62805;44.644;10.942;2023-04-15T01:47:04;8.13;;;1.60;;
74369;SDS011;62805;44.644;10.942;2023-04-15T01:49:30;4.28;;;1.65;;
74369;SDS011;62805;44.644;10.942;2023-04-15T01:51:56;3.42;;;1.17;;
74369;SDS011;62805;44.644;10.942;2023-04-15T01:54:21;4.22;;;1.15;;
74369;SDS011;62805;44.644;10.942;2023-04-15T01:56:47;5.70;;;1.10;;
74369;SDS011;62805;44.644;10.942;2023-04-15T01:59:12;2.88;;;0.90;;
74369;SDS011;62805;44.644;10.942;2023-04-15T02:01:38;4.88;;;1.20;;
74369;SDS011;62805;44.644;10.942;2023-04-15T02:04:03;4.68;;;1.25;;
74369;SDS011;62805;44.644;10.942;2023-04-15T02:06:29;6.18;;;1.30;;
74369;SDS011;62805;44.644;10.942;2023-04-15T02:08:55;4.88;;;1.30;;
74369;SDS011;62805;44.644;10.942;2023-04-15T02:11:21;6.10;;;1.30;;
74369;SDS011;62805;44.644;10.942;2023-04-15T02:13:47;3.28;;;1.20;;
74369;SDS011;62805;44.644;10.942;2023-04-15T02:16:18;4.53;;;1.17;;
74369;SDS011;62805;44.644;10.942;2023-04-15T02:18:44;5.03;;;1.13;;
74369;SDS011;62805;44.644;10.942;2023-04-15T02:21:10;2.92;;;1.48;;
74369;SDS011;62805;44.644;10.942;2023-04-15T02:23:36;3.60;;;1.20;;
74369;SDS011;62805;44.644;10.942;2023-04-15T02:26:01;7.40;;;1.25;;
74369;SDS011;62805;44.644;10.942;2023-04-15T02:28:27;2.72;;;1.17;;
74369;SDS011;62805;44.644;10.942;2023-04-15T02:30:52;3.78;;;1.00;;
74369;SDS011;62805;44.644;10.942;2023-04-15T02:35:45;3.63;;;1.33;;
74369;SDS011;62805;44.644;10.942;2023-04-15T02:38:11;8.75;;;1.30;;
74369;SDS011;62805;44.644;10.942;2023-04-15T02:40:38;7.25;;;1.33;;
74369;SDS011;62805;44.644;10.942;2023-04-15T02:43:03;4.63;;;1.17;;
74369;SDS011;62805;44.644;10.942;2023-04-15T02:45:31;6.30;;;1.58;;
74369;SDS011;62805;44.644;10.942;2023-04-15T02:47:57;4.95;;;1.30;;
74369;SDS011;62805;44.644;10.942;2023-04-15T02:50:22;4.82;;;1.67;;
74369;SDS011;62805;44.644;10.942;2023-04-15T02:52:49;3.97;;;1.30;;
74369;SDS011;62805;44.644;10.942;2023-04-15T02:55:15;1.92;;;0.90;;
74369;SDS011;62805;44.644;10.942;2023-04-15T02:57:42;4.35;;;1.73;;
74369;SDS011;62805;44.644;10.942;2023-04-15T03:00:07;4.40;;;1.42;;
74369;SDS011;62805;44.644;10.942;2023-04-15T03:02:36;5.20;;;1.42;;
74369;SDS011;62805;44.644;10.942;2023-04-15T03:05:03;7.00;;;1.40;;
74369;SDS011;62805;44.644;10.942;2023-04-15T03:07:29;4.60;;;1.17;;
74369;SDS011;62805;44.644;10.942;2023-04-15T03:09:55;3.88;;;1.63;;
74369;SDS011;62805;44.644;10.942;2023-04-15T03:12:21;7.80;;;1.10;;
74369;SDS011;62805;44.644;10.942;2023-04-15T03:14:46;2.45;;;1.20;;
74369;SDS011;62805;44.644;10.942;2023-04-15T03:17:11;2.35;;;1.20;;
74369;SDS011;62805;44.644;10.942;2023-04-15T03:19:37;3.50;;;1.50;;
74369;SDS011;62805;44.644;10.942;2023-04-15T03:22:02;2.70;;;1.33;;
74369;SDS011;62805;44.644;10.942;2023-04-15T03:24:27;3.50;;;1.30;;
74369;SDS011;62805;44.644;10.942;2023-04-15T03:26:54;3.22;;;1.50;;
74369;SDS011;62805;44.644;10.942;2023-04-15T03:29:20;5.15;;;1.98;;
74369;SDS011;62805;44.644;10.942;2023-04-15T03:31:45;4.25;;;1.50;;
74369;SDS011;62805;44.644;10.942;2023-04-15T03:34:10;3.80;;;1.83;;
74369;SDS011;62805;44.644;10.942;2023-04-15T03:36:36;5.28;;;1.48;;
74369;SDS011;62805;44.644;10.942;2023-04-15T03:39:01;3.50;;;1.37;;
74369;SDS011;62805;44.644;10.942;2023-04-15T03:41:27;5.20;;;1.75;;
74369;SDS011;62805;44.644;10.942;2023-04-15T03:43:52;4.97;;;1.48;;
74369;SDS011;62805;44.644;10.942;2023-04-15T03:46:18;6.22;;;1.38;;
74369;SDS011;62805;44.644;10.942;2023-04-15T03:48:43;3.08;;;1.35;;
74369;SDS011;62805;44.644;10.942;2023-04-15T03:51:09;8.95;;;1.90;;
74369;SDS011;62805;44.644;10.942;2023-04-15T03:53:34;2.55;;;1.23;;
74369;SDS011;62805;44.644;10.942;2023-04-15T03:56:00;5.22;;;1.27;;
74369;SDS011;62805;44.644;10.942;2023-04-15T03:58:26;5.70;;;1.65;;
74369;SDS011;62805;44.644;10.942;2023-04-15T04:00:51;5.53;;;1.65;;
74369;SDS011;62805;44.644;10.942;2023-04-15T04:03:17;5.23;;;1.53;;
74369;SDS011;62805;44.644;10.942;2023-04-15T04:05:42;2.83;;;1.40;;
74369;SDS011;62805;44.644;10.942;2023-04-15T04:08:08;5.57;;;1.63;;
74369;SDS011;62805;44.644;10.942;2023-04-15T04:10:34;3.47;;;1.20;;
74369;SDS011;62805;44.644;10.942;2023-04-15T04:12:59;6.82;;;1.60;;
74369;SDS011;62805;44.644;10.942;2023-04-15T04:15:26;6.72;;;1.67;;
74369;SDS011;62805;44.644;10.942;2023-04-15T04:17:51;6.90;;;1.70;;
74369;SDS011;62805;44.644;10.942;2023-04-15T04:20:16;8.43;;;1.77;;
74369;SDS011;62805;44.644;10.942;2023-04-15T04:22:42;2.85;;;1.60;;
74369;SDS011;62805;44.644;10.942;2023-04-15T04:25:07;3.25;;;1.40;;
74369;SDS011;62805;44.644;10.942;2023-04-15T04:27:34;5.38;;;1.90;;
74369;SDS011;62805;44.644;10.942;2023-04-15T04:30:00;3.42;;;1.60;;
74369;SDS011;62805;44.644;10.942;2023-04-15T04:32:26;4.63;;;1.63;;
74369;SDS011;62805;44.644;10.942;2023-04-15T04:34:51;6.55;;;1.88;;
74369;SDS011;62805;44.644;10.942;2023-04-15T04:37:17;9.13;;;1.80;;
74369;SDS011;62805;44.644;10.942;2023-04-15T04:39:42;4.33;;;1.60;;
74369;SDS011;62805;44.644;10.942;2023-04-15T04:42:07;3.88;;;1.60;;
74369;SDS011;62805;44.644;10.942;2023-04-15T04:44:33;5.47;;;2.00;;
74369;SDS011;62805;44.644;10.942;2023-04-15T04:46:58;6.22;;;2.38;;
74369;SDS011;62805;44.644;10.942;2023-04-15T04:49:23;6.80;;;1.92;;
74369;SDS011;62805;44.644;10.942;2023-04-15T04:51:49;5.70;;;1.80;;
74369;SDS011;62805;44.644;10.942;2023-04-15T04:54:15;4.82;;;1.80;;
74369;SDS011;62805;44.644;10.942;2023-04-15T04:56:41;5.45;;;1.83;;
74369;SDS011;62805;44.644;10.942;2023-04-15T04:59:06;5.83;;;2.40;;
74369;SDS011;62805;44.644;10.942;2023-04-15T05:01:32;9.90;;;2.00;;
74369;SDS011;62805;44.644;10.942;2023-04-15T05:03:58;7.35;;;2.10;;
74369;SDS011;62805;44.644;10.942;2023-04-15T05:06:23;7.32;;;2.15;;
74369;SDS011;62805;44.644;10.942;2023-04-15T05:08:50;4.38;;;2.00;;
74369;SDS011;62805;44.644;10.942;2023-04-15T05:11:15;4.33;;;2.20;;
74369;SDS011;62805;44.644;10.942;2023-04-15T05:13:40;13.50;;;2.83;;
74369;SDS011;62805;44.644;10.942;2023-04-15T05:16:06;5.95;;;2.25;;
74369;SDS011;62805;44.644;10.942;2023-04-15T05:18:31;7.43;;;2.25;;
74369;SDS011;62805;44.644;10.942;2023-04-15T05:20:57;3.72;;;1.80;;
74369;SDS011;62805;44.644;10.942;2023-04-15T05:23:23;4.20;;;2.00;;
74369;SDS011;62805;44.644;10.942;2023-04-15T05:25:48;6.23;;;1.97;;
74369;SDS011;62805;44.644;10.942;2023-04-15T05:28:13;5.97;;;2.23;;
74369;SDS011;62805;44.644;10.942;2023-04-15T05:30:39;4.53;;;2.38;;
74369;SDS011;62805;44.644;10.942;2023-04-15T05:33:05;5.38;;;2.15;;
74369;SDS011;62805;44.644;10.942;2023-04-15T05:35:30;3.53;;;1.75;;
74369;SDS011;62805;44.644;10.942;2023-04-15T05:37:55;6.63;;;2.20;;
74369;SDS011;62805;44.644;10.942;2023-04-15T05:40:21;9.73;;;2.13;;
74369;SDS011;62805;44.644;10.942;2023-04-15T05:42:47;7.03;;;2.47;;
74369;SDS011;62805;44.644;10.942;2023-04-15T05:45:12;7.17;;;2.50;;
74369;SDS011;62805;44.644;10.942;2023-04-15T05:47:37;7.40;;;2.00;;
74369;SDS011;62805;44.644;10.942;2023-04-15T05:50:03;8.40;;;2.37;;
74369;SDS011;62805;44.644;10.942;2023-04-15T05:52:28;7.63;;;2.28;;
74369;SDS011;62805;44.644;10.942;2023-04-15T05:54:55;6.60;;;2.60;;
74369;SDS011;62805;44.644;10.942;2023-04-15T05:57:20;4.53;;;2.27;;
74369;SDS011;62805;44.644;10.942;2023-04-15T05:59:45;5.75;;;2.67;;
74369;SDS011;62805;44.644;10.942;2023-04-15T06:02:11;6.90;;;2.73;;
74369;SDS011;62805;44.644;10.942;2023-04-15T06:04:37;6.05;;;2.17;;
74369;SDS011;62805;44.644;10.942;2023-04-15T06:07:03;5.97;;;2.40;;
74369;SDS011;62805;44.644;10.942;2023-04-15T06:09:28;10.40;;;3.33;;
74369;SDS011;62805;44.644;10.942;2023-04-15T06:11:54;5.82;;;2.53;;
74369;SDS011;62805;44.644;10.942;2023-04-15T06:14:20;6.47;;;2.90;;
74369;SDS011;62805;44.644;10.942;2023-04-15T06:16:46;8.05;;;3.50;;
74369;SDS011;62805;44.644;10.942;2023-04-15T06:19:11;8.47;;;3.47;;
74369;SDS011;62805;44.644;10.942;2023-04-15T06:21:38;8.98;;;3.22;;
74369;SDS011;62805;44.644;10.942;2023-04-15T06:24:03;6.28;;;3.10;;
74369;SDS011;62805;44.644;10.942;2023-04-15T06:26:30;9.35;;;3.03;;
74369;SDS011;62805;44.644;10.942;2023-04-15T06:28:56;5.65;;;3.10;;
74369;SDS011;62805;44.644;10.942;2023-04-15T06:31:21;7.23;;;4.13;;
74369;SDS011;62805;44.644;10.942;2023-04-15T06:33:46;7.97;;;3.63;;
74369;SDS011;62805;44.644;10.942;2023-04-15T06:36:12;9.27;;;3.53;;
74369;SDS011;62805;44.644;10.942;2023-04-15T06:38:37;10.23;;;4.03;;
74369;SDS011;62805;44.644;10.942;2023-04-15T06:41:03;6.73;;;3.87;;
74369;SDS011;62805;44.644;10.942;2023-04-15T06:43:28;7.22;;;3.97;;
74369;SDS011;62805;44.644;10.942;2023-04-15T06:45:54;7.75;;;3.80;;
74369;SDS011;62805;44.644;10.942;2023-04-15T06:48:20;6.72;;;4.30;;
74369;SDS011;62805;44.644;10.942;2023-04-15T06:50:46;8.98;;;4.45;;
74369;SDS011;62805;44.644;10.942;2023-04-15T06:53:13;6.22;;;3.85;;
74369;SDS011;62805;44.644;10.942;2023-04-15T06:55:38;8.38;;;4.20;;
74369;SDS011;62805;44.644;10.942;2023-04-15T06:58:04;8.55;;;4.05;;
74369;SDS011;62805;44.644;10.942;2023-04-15T07:00:29;9.63;;;4.00;;
74369;SDS011;62805;44.644;10.942;2023-04-15T07:02:55;7.00;;;4.30;;
74369;SDS011;62805;44.644;10.942;2023-04-15T07:05:21;6.75;;;3.53;;
74369;SDS011;62805;44.644;10.942;2023-04-15T07:07:46;8.40;;;4.00;;
74369;SDS011;62805;44.644;10.942;2023-04-15T07:10:11;12.23;;;3.80;;
74369;SDS011;62805;44.644;10.942;2023-04-15T07:12:38;8.88;;;4.20;;
74369;SDS011;62805;44.644;10.942;2023-04-15T07:15:04;8.13;;;3.97;;
74369;SDS011;62805;44.644;10.942;2023-04-15T07:17:30;7.00;;;3.75;;
74369;SDS011;62805;44.644;10.942;2023-04-15T07:19:56;6.65;;;3.20;;
74369;SDS011;62805;44.644;10.942;2023-04-15T07:22:21;6.80;;;3.57;;
74369;SDS011;62805;44.644;10.942;2023-04-15T07:24:46;11.07;;;3.57;;
74369;SDS011;62805;44.644;10.942;2023-04-15T07:27:12;7.17;;;3.60;;
74369;SDS011;62805;44.644;10.942;2023-04-15T07:29:37;15.23;;;7.70;;
74369;SDS011;62805;44.644;10.942;2023-04-15T07:32:02;5.68;;;3.50;;
74369;SDS011;62805;44.644;10.942;2023-04-15T07:34:28;9.25;;;4.20;;
74369;SDS011;62805;44.644;10.942;2023-04-15T07:36:53;6.95;;;3.90;;
74369;SDS011;62805;44.644;10.942;2023-04-15T07:39:19;8.63;;;3.73;;
74369;SDS011;62805;44.644;10.942;2023-04-15T07:41:44;10.60;;;4.22;;
74369;SDS011;62805;44.644;10.942;2023-04-15T07:44:10;9.70;;;4.47;;
74369;SDS011;62805;44.644;10.942;2023-04-15T07:46:36;8.52;;;3.95;;
74369;SDS011;62805;44.644;10.942;2023-04-15T07:49:02;8.07;;;3.50;;
74369;SDS011;62805;44.644;10.942;2023-04-15T07:51:27;7.53;;;3.92;;
74369;SDS011;62805;44.644;10.942;2023-04-15T07:53:53;7.72;;;4.68;;
74369;SDS011;62805;44.644;10.942;2023-04-15T07:56:19;12.70;;;4.45;;
74369;SDS011;62805;44.644;10.942;2023-04-15T07:58:44;7.70;;;4.82;;
74369;SDS011;62805;44.644;10.942;2023-04-15T08:01:10;8.93;;;4.93;;
74369;SDS011;62805;44.644;10.942;2023-04-15T08:03:35;7.60;;;4.35;;
74369;SDS011;62805;44.644;10.942;2023-04-15T08:06:01;7.25;;;4.40;;
74369;SDS011;62805;44.644;10.942;2023-04-15T08:08:27;7.78;;;3.92;;
74369;SDS011;62805;44.644;10.942;2023-04-15T08:10:52;9.77;;;4.53;;
74369;SDS011;62805;44.644;10.942;2023-04-15T08:13:17;9.27;;;4.22;;
74369;SDS011;62805;44.644;10.942;2023-04-15T08:15:43;8.82;;;4.63;;
74369;SDS011;62805;44.644;10.942;2023-04-15T08:18:08;8.80;;;4.75;;
74369;SDS011;62805;44.644;10.942;2023-04-15T08:20:34;11.13;;;4.78;;
74369;SDS011;62805;44.644;10.942;2023-04-15T08:23:01;9.23;;;4.88;;
74369;SDS011;62805;44.644;10.942;2023-04-15T08:25:27;6.50;;;4.20;;
74369;SDS011;62805;44.644;10.942;2023-04-15T08:27:54;8.13;;;3.85;;
74369;SDS011;62805;44.644;10.942;2023-04-15T08:30:21;6.43;;;4.93;;
74369;SDS011;62805;44.644;10.942;2023-04-15T08:32:46;7.25;;;4.28;;
74369;SDS011;62805;44.644;10.942;2023-04-15T08:35:12;8.10;;;4.47;;
74369;SDS011;62805;44.644;10.942;2023-04-15T08:37:38;10.40;;;5.03;;
74369;SDS011;62805;44.644;10.942;2023-04-15T08:40:03;9.48;;;4.20;;
74369;SDS011;62805;44.644;10.942;2023-04-15T08:42:35;10.32;;;4.60;;
74369;SDS011;62805;44.644;10.942;2023-04-15T08:45:05;8.40;;;4.53;;
74369;SDS011;62805;44.644;10.942;2023-04-15T08:47:35;9.35;;;4.68;;
74369;SDS011;62805;44.644;10.942;2023-04-15T08:50:03;6.55;;;4.07;;
74369;SDS011;62805;44.644;10.942;2023-04-15T08:52:29;6.18;;;4.20;;
74369;SDS011;62805;44.644;10.942;2023-04-15T08:54:56;12.38;;;3.88;;
74369;SDS011;62805;44.644;10.942;2023-04-15T08:57:26;6.88;;;3.92;;
74369;SDS011;62805;44.644;10.942;2023-04-15T08:59:54;6.68;;;3.13;;
74369;SDS011;62805;44.644;10.942;2023-04-15T09:02:21;7.15;;;4.78;;
74369;SDS011;62805;44.644;10.942;2023-04-15T09:04:48;4.93;;;2.83;;
74369;SDS011;62805;44.644;10.942;2023-04-15T09:07:13;6.38;;;3.17;;
74369;SDS011;62805;44.644;10.942;2023-04-15T09:09:39;7.50;;;3.42;;
74369;SDS011;62805;44.644;10.942;2023-04-15T09:12:06;8.93;;;3.15;;
74369;SDS011;62805;44.644;10.942;2023-04-15T09:14:32;7.13;;;3.17;;
74369;SDS011;62805;44.644;10.942;2023-04-15T09:17:02;5.50;;;2.75;;
74369;SDS011;62805;44.644;10.942;2023-04-15T09:19:28;8.05;;;3.15;;
74369;SDS011;62805;44.644;10.942;2023-04-15T09:21:55;6.38;;;3.00;;
74369;SDS011;62805;44.644;10.942;2023-04-15T09:24:22;8.43;;;2.97;;
74369;SDS011;62805;44.644;10.942;2023-04-15T09:26:51;9.15;;;3.13;;
74369;SDS011;62805;44.644;10.942;2023-04-15T09:29:18;6.65;;;2.47;;
74369;SDS011;62805;44.644;10.942;2023-04-15T09:31:44;6.03;;;2.67;;
74369;SDS011;62805;44.644;10.942;2023-04-15T09:34:10;9.38;;;2.90;;
74369;SDS011;62805;44.644;10.942;2023-04-15T09:39:10;7.55;;;3.10;;
74369;SDS011;62805;44.644;10.942;2023-04-15T09:41:35;8.40;;;3.20;;
74369;SDS011;62805;44.644;10.942;2023-04-15T09:44:01;9.43;;;2.88;;
74369;SDS011;62805;44.644;10.942;2023-04-15T09:46:42;5.33;;;2.40;;
74369;SDS011;62805;44.644;10.942;2023-04-15T09:49:09;14.02;;;3.38;;
74369;SDS011;62805;44.644;10.942;2023-04-15T09:51:35;8.63;;;3.00;;
74369;SDS011;62805;44.644;10.942;2023-04-15T09:54:01;11.02;;;2.97;;
74369;SDS011;62805;44.644;10.942;2023-04-15T09:56:37;9.05;;;2.88;;
74369;SDS011;62805;44.644;10.942;2023-04-15T10:01:32;8.82;;;3.10;;
74369;SDS011;62805;44.644;10.942;2023-04-15T10:03:57;6.85;;;2.60;;
74369;SDS011;62805;44.644;10.942;2023-04-15T10:06:26;8.45;;;2.63;;
74369;SDS011;62805;44.644;10.942;2023-04-15T10:08:51;7.57;;;2.80;;
74369;SDS011;62805;44.644;10.942;2023-04-15T10:11:18;8.50;;;2.45;;
74369;SDS011;62805;44.644;10.942;2023-04-15T10:13:45;6.90;;;2.13;;
74369;SDS011;62805;44.644;10.942;2023-04-15T10:16:13;8.82;;;2.70;;
74369;SDS011;62805;44.644;10.942;2023-04-15T10:18:44;3.63;;;2.10;;
74369;SDS011;62805;44.644;10.942;2023-04-15T10:21:11;6.68;;;2.63;;
74369;SDS011;62805;44.644;10.942;2023-04-15T10:23:42;4.90;;;2.28;;
74369;SDS011;62805;44.644;10.942;2023-04-15T10:26:12;7.03;;;2.67;;
74369;SDS011;62805;44.644;10.942;2023-04-15T10:31:04;7.78;;;2.63;;
74369;SDS011;62805;44.644;10.942;2023-04-15T10:33:31;6.03;;;1.80;;
74369;SDS011;62805;44.644;10.942;2023-04-15T10:35:57;7.97;;;2.45;;
74369;SDS011;62805;44.644;10.942;2023-04-15T10:38:43;7.32;;;2.55;;
74369;SDS011;62805;44.644;10.942;2023-04-15T10:41:22;4.43;;;2.00;;
74369;SDS011;62805;44.644;10.942;2023-04-15T10:44:00;7.07;;;2.38;;
74369;SDS011;62805;44.644;10.942;2023-04-15T10:46:37;8.40;;;2.20;;
74369;SDS011;62805;44.644;10.942;2023-04-15T10:51:37;4.70;;;2.35;;
74369;SDS011;62805;44.644;10.942;2023-04-15T10:54:16;5.40;;;2.35;;
74369;SDS011;62805;44.644;10.942;2023-04-15T10:59:25;5.13;;;2.83;;
74369;SDS011;62805;44.644;10.942;2023-04-15T11:01:54;9.60;;;2.88;;
74369;SDS011;62805;44.644;10.942;2023-04-15T11:07:31;5.53;;;2.08;;
74369;SDS011;62805;44.644;10.942;2023-04-15T11:13:01;6.80;;;2.33;;
74369;SDS011;62805;44.644;10.942;2023-04-15T11:18:07;3.92;;;2.20;;
74369;SDS011;62805;44.644;10.942;2023-04-15T11:20:35;6.78;;;2.58;;
74369;SDS011;62805;44.644;10.942;2023-04-15T11:25:28;5.75;;;2.65;;
74369;SDS011;62805;44.644;10.942;2023-04-15T11:27:59;5.15;;;2.50;;
74369;SDS011;62805;44.644;10.942;2023-04-15T11:30:26;6.43;;;2.88;;
74369;SDS011;62805;44.644;10.942;2023-04-15T11:32:54;6.18;;;2.83;;
74369;SDS011;62805;44.644;10.942;2023-04-15T11:35:22;9.10;;;3.35;;
74369;SDS011;62805;44.644;10.942;2023-04-15T11:37:47;8.27;;;2.80;;
74369;SDS011;62805;44.644;10.942;2023-04-15T11:40:14;6.38;;;2.65;;
74369;SDS011;62805;44.644;10.942;2023-04-15T11:42:41;10.02;;;3.58;;
74369;SDS011;62805;44.644;10.942;2023-04-15T11:45:11;7.25;;;2.40;;
74369;SDS011;62805;44.644;10.942;2023-04-15T11:47:39;5.88;;;2.42;;
74369;SDS011;62805;44.644;10.942;2023-04-15T11:50:18;8.07;;;2.47;;
74369;SDS011;62805;44.644;10.942;2023-04-15T11:52:51;9.27;;;3.08;;
74369;SDS011;62805;44.644;10.942;2023-04-15T11:55:18;6.28;;;2.53;;
74369;SDS011;62805;44.644;10.942;2023-04-15T11:57:43;7.40;;;2.60;;
74369;SDS011;62805;44.644;10.942;2023-04-15T12:00:09;7.53;;;2.45;;
74369;SDS011;62805;44.644;10.942;2023-04-15T12:02:37;4.30;;;1.85;;
74369;SDS011;62805;44.644;10.942;2023-04-15T12:05:03;3.95;;;2.03;;
74369;SDS011;62805;44.644;10.942;2023-04-15T12:07:30;5.03;;;2.38;;
74369;SDS011;62805;44.644;10.942;2023-04-15T12:09:56;10.70;;;2.80;;
74369;SDS011;62805;44.644;10.942;2023-04-15T12:12:25;6.95;;;2.30;;
74369;SDS011;62805;44.644;10.942;2023-04-15T12:14:52;4.93;;;2.70;;
74369;SDS011;62805;44.644;10.942;2023-04-15T12:17:18;7.55;;;2.55;;
74369;SDS011;62805;44.644;10.942;2023-04-15T12:19:43;8.52;;;2.72;;
74369;SDS011;62805;44.644;10.942;2023-04-15T12:22:13;5.07;;;2.00;;
74369;SDS011;62805;44.644;10.942;2023-04-15T12:24:41;6.47;;;2.63;;
74369;SDS011;62805;44.644;10.942;2023-04-15T12:27:14;6.57;;;3.20;;
74369;SDS011;62805;44.644;10.942;2023-04-15T12:29:41;9.57;;;2.42;;
74369;SDS011;62805;44.644;10.942;2023-04-15T12:32:07;6.68;;;2.20;;
74369;SDS011;62805;44.644;10.942;2023-04-15T12:34:34;6.97;;;2.85;;
74369;SDS011;62805;44.644;10.942;2023-04-15T12:37:01;5.80;;;3.03;;
74369;SDS011;62805;44.644;10.942;2023-04-15T12:41:55;8.43;;;3.30;;
74369;SDS011;62805;44.644;10.942;2023-04-15T12:44:23;7.65;;;3.60;;
74369;SDS011;62805;44.644;10.942;2023-04-15T12:46:49;6.53;;;2.80;;
74369;SDS011;62805;44.644;10.942;2023-04-15T12:49:16;5.90;;;3.00;;
74369;SDS011;62805;44.644;10.942;2023-04-15T12:51:44;5.70;;;3.33;;
74369;SDS011;62805;44.644;10.942;2023-04-15T12:54:10;5.93;;;2.78;;
74369;SDS011;62805;44.644;10.942;2023-04-15T12:56:36;6.07;;;3.50;;
74369;SDS011;62805;44.644;10.942;2023-04-15T12:59:01;6.57;;;3.43;;
74369;SDS011;62805;44.644;10.942;2023-04-15T13:01:27;4.88;;;2.90;;
74369;SDS011;62805;44.644;10.942;2023-04-15T13:03:52;8.05;;;3.78;;
74369;SDS011;62805;44.644;10.942;2023-04-15T13:06:18;7.88;;;3.22;;
74369;SDS011;62805;44.644;10.942;2023-04-15T13:08:43;9.30;;;3.03;;
74369;SDS011;62805;44.644;10.942;2023-04-15T13:11:09;6.32;;;2.80;;
74369;SDS011;62805;44.644;10.942;2023-04-15T13:13:34;6.07;;;3.10;;
74369;SDS011;62805;44.644;10.942;2023-04-15T13:16:00;7.47;;;2.50;;
74369;SDS011;62805;44.644;10.942;2023-04-15T13:18:25;5.05;;;2.72;;
74369;SDS011;62805;44.644;10.942;2023-04-15T13:20:51;5.25;;;2.67;;
74369;SDS011;62805;44.644;10.942;2023-04-15T13:23:16;5.72;;;3.28;;
74369;SDS011;62805;44.644;10.942;2023-04-15T13:25:41;5.80;;;2.83;;
74369;SDS011;62805;44.644;10.942;2023-04-15T13:28:07;4.68;;;2.25;;
74369;SDS011;62805;44.644;10.942;2023-04-15T13:30:36;4.05;;;1.85;;
74369;SDS011;62805;44.644;10.942;2023-04-15T13:33:02;4.40;;;1.90;;
74369;SDS011;62805;44.644;10.942;2023-04-15T13:35:27;6.90;;;3.22;;
74369;SDS011;62805;44.644;10.942;2023-04-15T13:37:52;5.13;;;2.03;;
74369;SDS011;62805;44.644;10.942;2023-04-15T13:40:18;5.40;;;2.50;;
74369;SDS011;62805;44.644;10.942;2023-04-15T13:42:44;5.35;;;2.13;;
74369;SDS011;62805;44.644;10.942;2023-04-15T13:45:10;4.80;;;1.92;;
74369;SDS011;62805;44.644;10.942;2023-04-15T13:47:35;5.88;;;2.50;;
74369;SDS011;62805;44.644;10.942;2023-04-15T13:50:00;5.03;;;1.63;;
74369;SDS011;62805;44.644;10.942;2023-04-15T13:52:26;5.07;;;1.93;;
74369;SDS011;62805;44.644;10.942;2023-04-15T13:54:51;4.80;;;2.03;;
74369;SDS011;62805;44.644;10.942;2023-04-15T13:57:16;6.95;;;1.80;;
74369;SDS011;62805;44.644;10.942;2023-04-15T13:59:42;4.20;;;1.83;;
74369;SDS011;62805;44.644;10.942;2023-04-15T14:02:08;5.55;;;2.08;;
74369;SDS011;62805;44.644;10.942;2023-04-15T14:04:33;4.53;;;2.13;;
74369;SDS011;62805;44.644;10.942;2023-04-15T14:06:59;3.80;;;1.75;;
74369;SDS011;62805;44.644;10.942;2023-04-15T14:09:24;5.53;;;2.00;;
74369;SDS011;62805;44.644;10.942;2023-04-15T14:11:50;5.65;;;1.80;;
74369;SDS011;62805;44.644;10.942;2023-04-15T14:14:15;4.90;;;1.90;;
74369;SDS011;62805;44.644;10.942;2023-04-15T14:16:41;5.55;;;2.78;;
74369;SDS011;62805;44.644;10.942;2023-04-15T14:19:06;4.32;;;1.67;;
74369;SDS011;62805;44.644;10.942;2023-04-15T14:21:32;5.60;;;2.40;;
74369;SDS011;62805;44.644;10.942;2023-04-15T14:23:57;4.20;;;2.00;;
74369;SDS011;62805;44.644;10.942;2023-04-15T14:26:23;5.35;;;1.70;;
74369;SDS011;62805;44.644;10.942;2023-04-15T14:28:48;6.88;;;3.47;;
74369;SDS011;62805;44.644;10.942;2023-04-15T14:31:14;5.85;;;2.60;;
74369;SDS011;62805;44.644;10.942;2023-04-15T14:33:39;3.80;;;2.10;;
74369;SDS011;62805;44.644;10.942;2023-04-15T14:36:05;7.00;;;1.80;;
74369;SDS011;62805;44.644;10.942;2023-04-15T14:38:35;3.88;;;1.42;;
74369;SDS011;62805;44.644;10.942;2023-04-15T14:41:07;4.70;;;1.88;;
74369;SDS011;62805;44.644;10.942;2023-04-15T14:43:33;3.42;;;1.40;;
74369;SDS011;62805;44.644;10.942;2023-04-15T14:45:58;6.60;;;1.80;;
74369;SDS011;62805;44.644;10.942;2023-04-15T14:48:24;6.35;;;2.20;;
74369;SDS011;62805;44.644;10.942;2023-04-15T14:50:49;4.25;;;1.33;;
74369;SDS011;62805;44.644;10.942;2023-04-15T14:53:15;3.30;;;1.20;;
74369;SDS011;62805;44.644;10.942;2023-04-15T14:55:40;4.68;;;1.88;;
74369;SDS011;62805;44.644;10.942;2023-04-15T14:58:06;7.07;;;1.77;;